createdAt,value
2019-04-05T00:00:55.728Z,7.98
2019-04-05T00:05:01.467Z,8.12
2019-04-05T00:09:08.447Z,8.54
2019-04-05T00:13:14.111Z,8.96
2019-04-05T00:17:19.810Z,9.14
2019-04-05T00:21:25.540Z,9.18
2019-04-05T00:25:31.265Z,9.23
2019-04-05T00:29:36.976Z,9.00
2019-04-05T00:33:42.690Z,8.80
2019-04-05T00:37:48.364Z,8.55
2019-04-05T00:41:54.115Z,8.22
2019-04-05T00:45:59.796Z,8.31
2019-04-05T00:50:12.307Z,8.68
2019-04-05T00:54:17.965Z,8.96
2019-04-05T00:58:23.719Z,9.01
2019-04-05T01:02:29.651Z,8.79
2019-04-05T01:06:35.858Z,8.75
2019-04-05T01:10:43.015Z,8.88
2019-04-05T01:14:49.127Z,9.16
2019-04-05T01:18:54.878Z,9.24
2019-04-05T01:23:02.404Z,9.23
2019-04-05T01:27:08.811Z,9.46
2019-04-05T01:31:14.544Z,9.54
2019-04-05T01:35:20.312Z,9.35
2019-04-05T01:39:26.077Z,9.28
2019-04-05T01:43:31.891Z,9.31
2019-04-05T01:47:37.891Z,8.89
2019-04-05T01:51:44.353Z,8.82
2019-04-05T01:55:50.021Z,9.22
2019-04-05T01:59:55.724Z,9.44
2019-04-05T02:04:01.618Z,9.51
2019-04-05T02:08:07.512Z,9.60
2019-04-05T02:12:13.358Z,9.64
2019-04-05T02:16:19.172Z,9.51
2019-04-05T02:20:25.373Z,9.59
2019-04-05T02:24:31.135Z,9.41
2019-04-05T02:28:37.290Z,9.20
2019-04-05T02:32:43.213Z,9.07
2019-04-05T02:36:48.970Z,8.99
2019-04-05T02:40:58.483Z,9.04
2019-04-05T02:45:06.820Z,8.81
2019-04-05T02:49:14.420Z,8.97
2019-04-05T02:53:21.712Z,9.09
2019-04-05T02:57:28.999Z,9.14
2019-04-05T03:01:35.797Z,9.23
2019-04-05T03:05:42.019Z,9.11
2019-04-05T03:09:49.459Z,8.78
2019-04-05T03:13:59.305Z,8.73
2019-04-05T03:18:05.107Z,8.70
2019-04-05T03:22:14.050Z,8.68
2019-04-05T03:26:24.169Z,8.65
2019-04-05T03:30:30.354Z,8.91
2019-04-05T03:34:37.360Z,8.91
2019-04-05T03:38:43.263Z,9.05
2019-04-05T03:42:49.275Z,9.01
2019-04-05T03:46:57.926Z,8.81
2019-04-05T03:51:03.781Z,8.99
2019-04-05T03:55:09.900Z,8.88
2019-04-05T03:59:15.569Z,9.16
2019-04-05T04:03:21.495Z,9.22
2019-04-05T04:07:27.329Z,8.95
2019-04-05T04:11:33.479Z,8.84
2019-04-05T04:15:39.549Z,8.99
2019-04-05T04:19:46.223Z,9.36
2019-04-05T04:23:52.415Z,9.43
2019-04-05T04:27:58.872Z,9.50
2019-04-05T04:32:05.213Z,9.55
2019-04-05T04:36:13.241Z,9.56
2019-04-05T04:40:21.213Z,9.84
2019-04-05T04:44:27.412Z,9.85
2019-04-05T04:48:33.739Z,9.83
2019-04-05T04:52:39.644Z,9.72
2019-04-05T04:56:45.735Z,9.78
2019-04-05T05:00:51.826Z,9.74
2019-04-05T05:04:57.806Z,9.79
2019-04-05T05:09:06.432Z,9.79
2019-04-05T05:13:12.268Z,9.44
2019-04-05T05:17:18.425Z,9.54
2019-04-05T05:21:24.343Z,9.78
2019-04-05T05:25:30.440Z,9.80
2019-04-05T05:29:36.609Z,9.78
2019-04-05T05:33:42.860Z,9.85
2019-04-05T05:37:49.383Z,9.99
2019-04-05T05:41:55.190Z,9.98
2019-04-05T05:46:01.250Z,9.94
2019-04-05T05:50:09.979Z,9.95
2019-04-05T05:54:15.682Z,9.99
2019-04-05T05:58:21.376Z,10.03
2019-04-05T06:02:27.142Z,10.15
2019-04-05T06:06:32.842Z,10.03
2019-04-05T06:10:38.545Z,9.96
2019-04-05T06:14:44.296Z,9.94
2019-04-05T06:18:49.979Z,10.25
2019-04-05T06:22:55.668Z,10.28
2019-04-05T06:27:02.404Z,10.35
2019-04-05T06:31:08.114Z,10.36
2019-04-05T06:35:13.872Z,10.34
2019-04-05T06:39:20.829Z,10.38
2019-04-05T06:43:26.674Z,10.13
2019-04-05T06:47:32.375Z,10.22
2019-04-05T06:51:38.072Z,10.21
2019-04-05T06:55:43.759Z,10.36
2019-04-05T06:59:49.435Z,10.55
2019-04-05T07:03:55.414Z,10.40
2019-04-05T07:08:01.174Z,10.41
2019-04-05T07:12:06.978Z,10.38
2019-04-05T07:16:12.710Z,10.31
2019-04-05T07:20:18.547Z,10.46
2019-04-05T07:24:24.234Z,10.43
2019-04-05T07:28:29.990Z,10.46
2019-04-05T07:32:35.829Z,10.46
2019-04-05T07:36:41.519Z,10.41
2019-04-05T07:40:47.283Z,10.49
2019-04-05T07:44:52.984Z,10.80
2019-04-05T07:48:58.720Z,10.81
2019-04-05T07:53:05.396Z,11.07
2019-04-05T07:57:11.081Z,10.93
2019-04-05T08:01:16.881Z,10.98
2019-04-05T08:05:22.653Z,10.82
2019-04-05T08:09:28.912Z,10.71
2019-04-05T08:13:38.658Z,10.83
2019-04-05T08:17:44.330Z,10.93
2019-04-05T08:21:50.009Z,10.94
2019-04-05T08:25:55.767Z,10.97
2019-04-05T08:30:01.507Z,10.93
2019-04-05T08:34:07.403Z,11.03
2019-04-05T08:38:13.056Z,10.98
2019-04-05T08:42:18.768Z,10.91
2019-04-05T08:46:24.580Z,10.91
2019-04-05T08:50:30.363Z,10.95
2019-04-05T08:54:36.868Z,11.05
2019-04-05T08:58:42.857Z,10.97
2019-04-05T09:02:48.822Z,11.17
2019-04-05T09:06:55.485Z,11.21
2019-04-05T09:11:01.182Z,11.25
2019-04-05T09:15:08.529Z,11.38
2019-04-05T09:19:23.364Z,11.35
2019-04-05T09:23:21.904Z,11.41
2019-04-05T09:27:27.603Z,11.44
2019-04-05T09:31:33.486Z,11.91
2019-04-05T09:35:39.191Z,12.51
2019-04-05T09:39:44.882Z,12.92
2019-04-05T09:43:50.584Z,13.27
2019-04-05T09:47:56.294Z,13.83
2019-04-05T09:52:01.998Z,14.36
2019-04-05T09:56:07.717Z,14.75
2019-04-05T10:05:25.830Z,16.94
2019-04-05T10:09:31.600Z,18.69
2019-04-05T10:13:37.370Z,18.49
2019-04-05T10:17:43.069Z,19.14
2019-04-05T10:21:48.757Z,19.56
2019-04-05T10:25:54.455Z,18.22
2019-04-05T10:30:00.151Z,16.97
2019-04-05T10:34:06.020Z,16.35
2019-04-05T10:38:11.734Z,15.94
2019-04-05T10:42:34.005Z,16.72
2019-04-05T10:46:39.698Z,16.36
2019-04-05T10:50:45.519Z,16.00
2019-04-05T10:54:51.248Z,15.92
2019-04-05T10:58:57.010Z,15.39
2019-04-05T11:03:02.836Z,15.00
2019-04-05T11:07:08.572Z,14.83
2019-04-05T11:11:14.279Z,14.77
2019-04-05T11:15:20.596Z,14.41
2019-04-05T11:19:26.370Z,14.34
2019-04-05T11:23:32.079Z,14.29
2019-04-05T11:27:37.939Z,14.37
2019-04-05T11:31:55.979Z,14.16
2019-04-05T11:35:51.511Z,14.09
2019-04-05T11:39:58.001Z,13.93
2019-04-05T11:44:04.409Z,13.82
2019-04-05T11:48:10.317Z,13.96
2019-04-05T11:52:16.186Z,13.64
2019-04-05T11:56:21.884Z,13.64
2019-04-05T12:00:36.350Z,13.45
2019-04-05T12:04:42.902Z,13.45
2019-04-05T12:08:48.787Z,13.47
2019-04-05T12:12:54.563Z,13.38
2019-04-05T12:17:00.263Z,12.59
2019-04-05T12:21:06.050Z,12.23
2019-04-05T12:25:12.061Z,12.31
2019-04-05T12:29:17.823Z,12.03
2019-04-05T12:33:23.687Z,12.19
2019-04-05T12:37:29.444Z,12.05
2019-04-05T12:41:35.120Z,12.17
2019-04-05T12:45:44.349Z,12.19
2019-04-05T12:49:48.255Z,11.93
2019-04-05T12:53:56.489Z,11.52
2019-04-05T12:58:01.344Z,11.96
2019-04-05T13:02:07.050Z,12.22
2019-04-05T13:06:12.769Z,11.87
2019-04-05T13:10:18.470Z,11.83
2019-04-05T13:14:26.094Z,11.83
2019-04-05T13:18:31.880Z,11.95
2019-04-05T13:34:06.312Z,12.34
2019-04-05T13:38:12.152Z,12.52
2019-04-05T13:42:17.843Z,12.63
2019-04-05T13:46:26.054Z,12.59
2019-04-05T13:50:31.048Z,12.59
2019-04-05T13:54:38.291Z,12.76
2019-04-05T13:58:46.362Z,12.79
2019-04-05T14:02:51.654Z,12.86
2019-04-05T14:06:57.357Z,13.08
2019-04-05T14:11:03.594Z,13.00
2019-04-05T14:15:11.242Z,12.86
2019-04-05T14:19:19.382Z,12.82
2019-04-05T14:23:26.200Z,12.87
2019-04-05T14:27:34.930Z,13.04
2019-04-05T14:31:39.304Z,13.02
2019-04-05T14:35:45.062Z,13.11
2019-04-05T14:39:50.769Z,13.09
2019-04-05T14:43:56.442Z,13.09
2019-04-05T14:48:02.323Z,12.97
2019-04-05T14:52:08.028Z,12.92
2019-04-05T14:56:13.717Z,12.83
2019-04-05T15:00:19.843Z,12.89
2019-04-05T15:04:25.525Z,12.77
2019-04-05T15:08:31.243Z,12.70
2019-04-05T15:12:36.970Z,12.73
2019-04-05T15:16:42.661Z,12.48
2019-04-05T15:20:48.336Z,12.32
2019-04-05T15:24:54.105Z,12.50
2019-04-05T15:28:59.821Z,12.56
2019-04-05T15:33:05.808Z,12.41
2019-04-05T15:37:11.809Z,12.28
2019-04-05T15:41:17.558Z,12.46
2019-04-05T15:45:23.422Z,12.63
2019-04-05T15:49:30.186Z,12.61
2019-04-05T15:53:35.887Z,12.60
2019-04-05T15:57:41.585Z,12.63
2019-04-05T16:01:47.263Z,12.74
2019-04-05T16:05:53.108Z,12.63
2019-04-05T16:09:58.889Z,12.61
2019-04-05T16:14:04.933Z,12.51
2019-04-05T16:18:10.707Z,12.44
2019-04-05T16:22:16.443Z,12.39
2019-04-05T16:26:22.144Z,12.37
2019-04-05T16:30:27.920Z,12.37
2019-04-05T16:34:33.602Z,12.33
2019-04-05T16:38:39.371Z,12.38
2019-04-05T16:42:45.128Z,12.48
2019-04-05T16:46:50.826Z,12.38
2019-04-05T16:50:56.527Z,12.19
2019-04-05T16:55:03.259Z,12.31
2019-04-05T16:59:09.020Z,12.49
2019-04-05T17:03:14.695Z,12.52
2019-04-05T17:07:21.769Z,12.56
2019-04-05T17:11:27.628Z,12.62
2019-04-05T17:15:33.436Z,12.58
2019-04-05T17:19:40.756Z,12.60
2019-04-05T17:23:46.471Z,12.53
2019-04-05T17:27:52.183Z,12.50
2019-04-05T17:37:13.882Z,12.27
2019-04-05T17:41:19.586Z,12.27
2019-04-05T17:45:25.334Z,12.30
2019-04-05T17:49:31.006Z,12.40
2019-04-05T17:53:36.992Z,12.50
2019-04-05T17:57:42.994Z,12.53
2019-04-05T18:01:48.753Z,12.45
2019-04-05T18:05:54.472Z,12.41
2019-04-05T18:10:00.262Z,12.33
2019-04-05T18:14:06.122Z,12.41
2019-04-05T18:18:12.784Z,12.40
2019-04-05T18:22:18.527Z,12.37
2019-04-05T18:26:24.237Z,12.33
2019-04-05T18:30:30.037Z,12.36
2019-04-05T18:34:35.798Z,12.34
2019-04-05T18:38:41.517Z,12.36
2019-04-05T18:42:47.291Z,12.27
2019-04-05T18:46:52.974Z,12.26
2019-04-05T18:50:58.875Z,12.20
2019-04-05T18:55:07.207Z,12.30
2019-04-05T18:59:12.922Z,12.24
2019-04-05T19:03:18.835Z,12.25
2019-04-05T19:07:24.554Z,12.28
2019-04-05T19:11:30.374Z,12.27
2019-04-05T19:15:36.085Z,12.20
2019-04-05T19:19:41.874Z,12.17
2019-04-05T19:23:51.024Z,12.26
2019-04-05T19:27:55.307Z,12.32
2019-04-05T19:48:31.454Z,12.24
2019-04-05T19:52:37.876Z,12.06
2019-04-05T19:56:43.581Z,11.74
2019-04-05T20:00:49.412Z,11.83
2019-04-05T20:04:55.198Z,12.01
2019-04-05T20:09:00.876Z,12.09
2019-04-05T20:13:08.497Z,12.01
2019-04-05T20:17:14.268Z,11.97
2019-04-05T20:21:19.997Z,12.06
2019-04-05T20:25:25.715Z,11.96
2019-04-05T20:29:31.397Z,11.86
2019-04-05T20:33:37.187Z,11.85
2019-04-05T20:37:42.922Z,11.71
2019-04-05T20:41:48.737Z,11.76
2019-04-05T20:45:57.090Z,11.64
2019-04-05T20:50:02.956Z,11.24
2019-04-05T20:54:08.658Z,11.48
2019-04-05T20:58:14.394Z,11.20
2019-04-05T21:02:20.177Z,11.13
2019-04-05T21:06:25.878Z,11.14
2019-04-05T21:10:31.589Z,11.09
2019-04-05T21:14:37.287Z,11.32
2019-04-05T21:18:42.991Z,10.96
2019-04-05T21:22:48.755Z,10.88
2019-04-05T21:26:54.446Z,10.86
2019-04-05T21:31:00.148Z,10.99
2019-04-05T21:35:07.668Z,10.86
2019-04-05T21:39:13.362Z,10.96
2019-04-05T21:43:19.059Z,10.87
2019-04-05T21:47:24.842Z,10.73
2019-04-05T21:51:30.584Z,10.53
2019-04-05T21:55:36.404Z,10.50
2019-04-05T21:59:42.079Z,10.40
2019-04-05T22:03:47.764Z,10.68
2019-04-05T22:07:53.480Z,10.75
2019-04-05T22:11:59.345Z,10.47
2019-04-05T22:16:05.068Z,10.42
2019-04-05T22:20:11.524Z,10.38
2019-04-05T22:24:17.194Z,10.45
2019-04-05T22:28:22.912Z,10.39
2019-04-05T22:32:28.611Z,10.23
2019-04-05T22:36:34.308Z,10.43
2019-04-05T22:40:40.005Z,10.46
2019-04-05T22:44:45.692Z,10.36
2019-04-05T22:48:51.383Z,10.06
2019-04-05T22:52:57.076Z,9.95
2019-04-05T23:01:04.483Z,10.00
2019-04-05T23:05:10.428Z,9.73
2019-04-05T23:09:16.127Z,9.66
2019-04-05T23:13:21.849Z,9.67
2019-04-05T23:17:27.610Z,9.59
2019-04-05T23:21:33.291Z,9.65
2019-04-05T23:25:39.020Z,9.63
2019-04-05T23:29:44.697Z,9.53
2019-04-05T23:33:50.396Z,9.36
2019-04-05T23:37:56.091Z,9.35
2019-04-05T23:42:01.962Z,9.32
2019-04-05T23:46:07.673Z,9.45
2019-04-05T23:50:13.678Z,9.47
2019-04-05T23:54:19.360Z,9.46
2019-04-05T23:58:25.074Z,9.36
